Погода Малое Рябцевона 2 недели

Тверская область, Россия

23 июля-05 августа
  • 23июля
    Сегодня
    +11°
    +24°
    Небольшая облачность
    ВремяПогодаТемператураВлажностьДавлениеВетер, м/сВероятность осадков
    00:00Ясно и безоблачно+15°C85 %742 мм2.5 м/с2 %
    03:00Практически безоблачно+14°C76 %743 мм2.1 м/с2 %
    06:00Ясно и безоблачно+14°C81 %743 мм2.3 м/с2 %
    09:00Практически безоблачно+20°C58 %744 мм2.8 м/с2 %
    12:00Небольшая облачность+22°C48 %744 мм3.4 м/с2 %
    15:00Небольшая облачность+23°C45 %744 мм3.0 м/с2 %
    18:00Практически безоблачно+23°C45 %743 мм2.7 м/с2 %
    21:00Ясно и безоблачно+18°C57 %743 мм2.8 м/с2 %
  • 24июля
    Среда
    +13°
    +26°
    Практически безоблачно
    ВремяПогодаТемператураВлажностьДавлениеВетер, м/сВероятность осадков
    00:00Ясно и безоблачно+13°C72 %743 мм2.0 м/с2 %
    03:00Ясно и безоблачно+11°C81 %743 мм2.0 м/с2 %
    06:00Ясно и безоблачно+13°C81 %743 мм1.8 м/с2 %
    09:00Ясно и безоблачно+20°C57 %744 мм1.4 м/с2 %
    12:00Небольшая облачность+23°C47 %743 мм1.9 м/с2 %
    15:00Практически безоблачно+25°C41 %743 мм1.9 м/с2 %
    18:00Облачно с прояснениями+25°C40 %742 мм1.4 м/с2 %
    21:00Облачно с прояснениями+20°C64 %742 мм2.0 м/с2 %
  • 25июля
    Четверг
    +13°
    +27°
    Практически безоблачно
    ВремяПогодаТемператураВлажностьДавлениеВетер, м/сВероятность осадков
    00:00Практически безоблачно+15°C76 %741 мм1.1 м/с2 %
    03:00Небольшая облачность+13°C83 %741 мм2.0 м/с2 %
    06:00Практически безоблачно+15°C80 %741 мм2.0 м/с2 %
    09:00Ясно и безоблачно+22°C56 %741 мм1.7 м/с2 %
    12:00Практически безоблачно+25°C42 %741 мм1.9 м/с18 %
    15:00Практически безоблачно+26°C41 %741 мм2.5 м/с33 %
    18:00Ясно и безоблачно+25°C46 %740 мм2.4 м/с41 %
    21:00Небольшая облачность+20°C68 %741 мм1.4 м/с13 %
  • 26июля
    Пятница
    +13°
    +26°
    Практически безоблачно
    ВремяПогодаТемператураВлажностьДавлениеВетер, м/сВероятность осадков
    00:00Практически безоблачно+16°C87 %741 мм1.4 м/с2 %
    03:00Ясно и безоблачно+14°C93 %741 мм2.3 м/с2 %
    06:00Ясно и безоблачно+14°C93 %742 мм2.0 м/с2 %
    09:00Ясно и безоблачно+20°C70 %742 мм1.5 м/с3 %
    12:00Практически безоблачно+24°C54 %743 мм0.9 м/с31 %
    15:00Практически безоблачно+25°C50 %743 мм0.9 м/с26 %
    18:00Практически безоблачно+25°C52 %744 мм1.1 м/с39 %
    21:00Практически безоблачно+20°C77 %744 мм1.4 м/с7 %
  • 27июля
    Суббота
    +14°
    +27°
    Облачно с прояснениями
    ВремяПогодаТемператураВлажностьДавлениеВетер, м/сВероятность осадков
    00:00Ясно и безоблачно+15°C86 %744 мм1.6 м/с3 %
    03:00Ясно и безоблачно+14°C93 %745 мм1.7 м/с3 %
    06:00Ясно и безоблачно+15°C94 %745 мм1.6 м/с4 %
    09:00Ясно и безоблачно+22°C68 %746 мм1.2 м/с5 %
    12:00Практически безоблачно+25°C54 %747 мм2.0 м/с20 %
    15:00Облачно с прояснениями+26°C49 %746 мм2.5 м/с34 %
    18:00Небольшая облачность, возможен дождь с грозой+25°C66 %747 мм3.2 м/с46 %
    21:00Ясно и безоблачно+20°C82 %747 мм1.7 м/с14 %
Мы используем cookies
Соглашаюсь